sensor_id;sensor_type;location;lat;lon;timestamp;temperature;humidity
4354;DHT22;11018;51.258;6.806;2022-11-11T00:00:29;8.80;99.90
4354;DHT22;11018;51.258;6.806;2022-11-11T00:02:55;8.80;99.90
4354;DHT22;11018;51.258;6.806;2022-11-11T00:05:22;8.80;99.90
4354;DHT22;11018;51.258;6.806;2022-11-11T00:07:48;8.70;99.90
4354;DHT22;11018;51.258;6.806;2022-11-11T00:10:14;8.70;99.90
4354;DHT22;11018;51.258;6.806;2022-11-11T00:12:39;8.70;99.90
4354;DHT22;11018;51.258;6.806;2022-11-11T00:15:06;8.60;99.90
4354;DHT22;11018;51.258;6.806;2022-11-11T00:17:32;8.60;99.90
4354;DHT22;11018;51.258;6.806;2022-11-11T00:20:17;8.50;99.90
4354;DHT22;11018;51.258;6.806;2022-11-11T00:23:01;8.50;99.90
4354;DHT22;11018;51.258;6.806;2022-11-11T00:25:46;8.50;99.90
4354;DHT22;11018;51.258;6.806;2022-11-11T00:28:16;8.50;99.90
4354;DHT22;11018;51.258;6.806;2022-11-11T00:30:41;8.40;99.90
4354;DHT22;11018;51.258;6.806;2022-11-11T00:33:07;8.40;99.90
4354;DHT22;11018;51.258;6.806;2022-11-11T00:35:32;8.40;99.90
4354;DHT22;11018;51.258;6.806;2022-11-11T00:38:17;8.40;99.90
4354;DHT22;11018;51.258;6.806;2022-11-11T00:41:01;8.50;99.90
4354;DHT22;11018;51.258;6.806;2022-11-11T00:43:27;8.50;99.90
4354;DHT22;11018;51.258;6.806;2022-11-11T00:45:53;8.50;99.90
4354;DHT22;11018;51.258;6.806;2022-11-11T00:48:18;8.50;99.90
4354;DHT22;11018;51.258;6.806;2022-11-11T00:51:02;8.50;99.90
4354;DHT22;11018;51.258;6.806;2022-11-11T00:53:30;8.50;99.90
4354;DHT22;11018;51.258;6.806;2022-11-11T00:55:57;8.50;99.90
4354;DHT22;11018;51.258;6.806;2022-11-11T00:58:23;8.50;99.90
4354;DHT22;11018;51.258;6.806;2022-11-11T01:00:49;8.50;99.90
4354;DHT22;11018;51.258;6.806;2022-11-11T01:03:18;8.50;99.90
4354;DHT22;11018;51.258;6.806;2022-11-11T01:05:43;8.50;99.90
4354;DHT22;11018;51.258;6.806;2022-11-11T01:08:09;8.50;99.90
4354;DHT22;11018;51.258;6.806;2022-11-11T01:10:36;8.50;99.90
4354;DHT22;11018;51.258;6.806;2022-11-11T01:13:20;8.60;99.90
4354;DHT22;11018;51.258;6.806;2022-11-11T01:15:51;8.60;99.90
4354;DHT22;11018;51.258;6.806;2022-11-11T01:18:20;8.50;99.90
4354;DHT22;11018;51.258;6.806;2022-11-11T01:20:46;8.50;99.90
4354;DHT22;11018;51.258;6.806;2022-11-11T01:23:12;8.50;99.90
4354;DHT22;11018;51.258;6.806;2022-11-11T01:25:40;8.50;99.90
4354;DHT22;11018;51.258;6.806;2022-11-11T01:28:07;8.50;99.90
4354;DHT22;11018;51.258;6.806;2022-11-11T01:30:34;8.50;99.90
4354;DHT22;11018;51.258;6.806;2022-11-11T01:33:00;8.50;99.90
4354;DHT22;11018;51.258;6.806;2022-11-11T01:35:26;8.50;99.90
4354;DHT22;11018;51.258;6.806;2022-11-11T01:37:52;8.40;99.90
4354;DHT22;11018;51.258;6.806;2022-11-11T01:40:18;8.40;99.90
4354;DHT22;11018;51.258;6.806;2022-11-11T01:42:47;8.50;99.90
4354;DHT22;11018;51.258;6.806;2022-11-11T01:48:34;8.50;99.90
4354;DHT22;11018;51.258;6.806;2022-11-11T01:51:26;8.50;99.90
4354;DHT22;11018;51.258;6.806;2022-11-11T01:54:01;8.40;99.90
4354;DHT22;11018;51.258;6.806;2022-11-11T01:56:29;8.40;99.90
4354;DHT22;11018;51.258;6.806;2022-11-11T01:58:57;8.40;99.90
4354;DHT22;11018;51.258;6.806;2022-11-11T02:01:24;8.40;99.90
4354;DHT22;11018;51.258;6.806;2022-11-11T02:03:52;8.30;99.90
4354;DHT22;11018;51.258;6.806;2022-11-11T02:06:38;8.30;99.90
4354;DHT22;11018;51.258;6.806;2022-11-11T02:09:03;8.30;99.90
4354;DHT22;11018;51.258;6.806;2022-11-11T02:11:30;8.20;99.90
4354;DHT22;11018;51.258;6.806;2022-11-11T02:14:16;8.30;99.90
4354;DHT22;11018;51.258;6.806;2022-11-11T02:17:06;8.30;99.90
4354;DHT22;11018;51.258;6.806;2022-11-11T02:19:43;8.30;99.90
4354;DHT22;11018;51.258;6.806;2022-11-11T02:22:13;8.20;99.90
4354;DHT22;11018;51.258;6.806;2022-11-11T02:24:40;8.30;99.90
4354;DHT22;11018;51.258;6.806;2022-11-11T02:27:07;8.30;99.90
4354;DHT22;11018;51.258;6.806;2022-11-11T02:29:35;8.30;99.90
4354;DHT22;11018;51.258;6.806;2022-11-11T02:32:01;8.30;99.90
4354;DHT22;11018;51.258;6.806;2022-11-11T02:34:30;8.20;99.90
4354;DHT22;11018;51.258;6.806;2022-11-11T02:36:57;8.20;99.90
4354;DHT22;11018;51.258;6.806;2022-11-11T02:39:24;8.20;99.90
4354;DHT22;11018;51.258;6.806;2022-11-11T02:41:50;8.10;99.90
4354;DHT22;11018;51.258;6.806;2022-11-11T02:44:22;8.10;99.90
4354;DHT22;11018;51.258;6.806;2022-11-11T02:46:48;8.20;99.90
4354;DHT22;11018;51.258;6.806;2022-11-11T02:49:13;8.10;99.90
4354;DHT22;11018;51.258;6.806;2022-11-11T02:51:39;8.10;99.90
4354;DHT22;11018;51.258;6.806;2022-11-11T02:54:04;8.00;99.90
4354;DHT22;11018;51.258;6.806;2022-11-11T02:56:30;8.00;99.90
4354;DHT22;11018;51.258;6.806;2022-11-11T02:59:15;8.00;99.90
4354;DHT22;11018;51.258;6.806;2022-11-11T03:01:40;8.00;99.90
4354;DHT22;11018;51.258;6.806;2022-11-11T03:04:06;7.90;99.90
4354;DHT22;11018;51.258;6.806;2022-11-11T03:06:31;7.90;99.90
4354;DHT22;11018;51.258;6.806;2022-11-11T03:08:57;7.90;99.90
4354;DHT22;11018;51.258;6.806;2022-11-11T03:11:23;7.90;99.90
4354;DHT22;11018;51.258;6.806;2022-11-11T03:13:58;7.90;99.90
4354;DHT22;11018;51.258;6.806;2022-11-11T03:16:25;7.80;99.90
4354;DHT22;11018;51.258;6.806;2022-11-11T03:19:09;7.80;99.90
4354;DHT22;11018;51.258;6.806;2022-11-11T03:21:35;7.90;99.90
4354;DHT22;11018;51.258;6.806;2022-11-11T03:24:01;7.80;99.90
4354;DHT22;11018;51.258;6.806;2022-11-11T03:26:26;8.00;99.90
4354;DHT22;11018;51.258;6.806;2022-11-11T03:28:52;8.00;99.90
4354;DHT22;11018;51.258;6.806;2022-11-11T03:31:18;7.90;99.90
4354;DHT22;11018;51.258;6.806;2022-11-11T03:33:43;7.90;99.90
4354;DHT22;11018;51.258;6.806;2022-11-11T03:36:09;7.90;99.90
4354;DHT22;11018;51.258;6.806;2022-11-11T03:38:34;7.90;99.90
4354;DHT22;11018;51.258;6.806;2022-11-11T03:41:00;7.90;99.90
4354;DHT22;11018;51.258;6.806;2022-11-11T03:43:29;7.90;99.90
4354;DHT22;11018;51.258;6.806;2022-11-11T03:45:56;7.80;99.90
4354;DHT22;11018;51.258;6.806;2022-11-11T03:48:23;7.80;99.90
4354;DHT22;11018;51.258;6.806;2022-11-11T03:50:49;7.80;99.90
4354;DHT22;11018;51.258;6.806;2022-11-11T03:53:16;7.80;99.90
4354;DHT22;11018;51.258;6.806;2022-11-11T03:55:42;7.70;99.90
4354;DHT22;11018;51.258;6.806;2022-11-11T03:58:07;7.70;99.90
4354;DHT22;11018;51.258;6.806;2022-11-11T04:00:34;7.80;99.90
4354;DHT22;11018;51.258;6.806;2022-11-11T04:05:47;7.80;99.90
4354;DHT22;11018;51.258;6.806;2022-11-11T04:08:31;7.70;99.90
4354;DHT22;11018;51.258;6.806;2022-11-11T04:11:23;7.70;99.90
4354;DHT22;11018;51.258;6.806;2022-11-11T04:13:49;7.70;99.90
4354;DHT22;11018;51.258;6.806;2022-11-11T04:16:34;7.70;99.90
4354;DHT22;11018;51.258;6.806;2022-11-11T04:18:59;7.70;99.90
4354;DHT22;11018;51.258;6.806;2022-11-11T04:21:43;7.80;99.90
4354;DHT22;11018;51.258;6.806;2022-11-11T04:24:14;7.70;99.90
4354;DHT22;11018;51.258;6.806;2022-11-11T04:27:01;7.70;99.90
4354;DHT22;11018;51.258;6.806;2022-11-11T04:29:27;7.70;99.90
4354;DHT22;11018;51.258;6.806;2022-11-11T04:32:00;7.70;99.90
4354;DHT22;11018;51.258;6.806;2022-11-11T04:34:50;7.60;99.90
4354;DHT22;11018;51.258;6.806;2022-11-11T04:37:16;7.70;99.90
4354;DHT22;11018;51.258;6.806;2022-11-11T04:39:42;7.70;99.90
4354;DHT22;11018;51.258;6.806;2022-11-11T04:42:27;7.70;99.90
4354;DHT22;11018;51.258;6.806;2022-11-11T04:44:53;7.70;99.90
4354;DHT22;11018;51.258;6.806;2022-11-11T04:47:37;7.70;99.90
4354;DHT22;11018;51.258;6.806;2022-11-11T04:50:04;7.70;99.90
4354;DHT22;11018;51.258;6.806;2022-11-11T04:52:30;7.70;99.90
4354;DHT22;11018;51.258;6.806;2022-11-11T04:54:57;7.70;99.90
4354;DHT22;11018;51.258;6.806;2022-11-11T04:57:46;7.70;99.90
4354;DHT22;11018;51.258;6.806;2022-11-11T05:00:17;7.80;99.90
4354;DHT22;11018;51.258;6.806;2022-11-11T05:02:43;7.80;99.90
4354;DHT22;11018;51.258;6.806;2022-11-11T05:05:28;7.80;99.90
4354;DHT22;11018;51.258;6.806;2022-11-11T05:07:54;7.80;99.90
4354;DHT22;11018;51.258;6.806;2022-11-11T05:10:38;7.80;99.90
4354;DHT22;11018;51.258;6.806;2022-11-11T05:13:04;7.80;99.90
4354;DHT22;11018;51.258;6.806;2022-11-11T05:15:48;7.80;99.90
4354;DHT22;11018;51.258;6.806;2022-11-11T05:18:33;7.80;99.90
4354;DHT22;11018;51.258;6.806;2022-11-11T05:21:25;7.90;99.90
4354;DHT22;11018;51.258;6.806;2022-11-11T05:23:52;7.90;99.90
4354;DHT22;11018;51.258;6.806;2022-11-11T05:26:36;7.90;99.90
4354;DHT22;11018;51.258;6.806;2022-11-11T05:29:02;7.90;99.90
4354;DHT22;11018;51.258;6.806;2022-11-11T05:31:28;7.80;99.90
4354;DHT22;11018;51.258;6.806;2022-11-11T05:33:54;7.80;99.90
4354;DHT22;11018;51.258;6.806;2022-11-11T05:36:20;7.80;99.90
4354;DHT22;11018;51.258;6.806;2022-11-11T05:38:46;7.90;99.90
4354;DHT22;11018;51.258;6.806;2022-11-11T05:41:11;7.80;99.90
4354;DHT22;11018;51.258;6.806;2022-11-11T05:43:37;7.80;99.90
4354;DHT22;11018;51.258;6.806;2022-11-11T05:46:03;7.80;99.90
4354;DHT22;11018;51.258;6.806;2022-11-11T05:48:30;7.70;99.90
4354;DHT22;11018;51.258;6.806;2022-11-11T05:50:59;7.70;99.90
4354;DHT22;11018;51.258;6.806;2022-11-11T05:53:24;7.70;99.90
4354;DHT22;11018;51.258;6.806;2022-11-11T05:55:50;7.70;99.90
4354;DHT22;11018;51.258;6.806;2022-11-11T05:58:19;7.70;99.90
4354;DHT22;11018;51.258;6.806;2022-11-11T06:00:45;7.80;99.90
4354;DHT22;11018;51.258;6.806;2022-11-11T06:03:11;7.80;99.90
4354;DHT22;11018;51.258;6.806;2022-11-11T06:05:37;7.80;99.90
4354;DHT22;11018;51.258;6.806;2022-11-11T06:08:02;7.80;99.90
4354;DHT22;11018;51.258;6.806;2022-11-11T06:10:28;7.70;99.90
4354;DHT22;11018;51.258;6.806;2022-11-11T06:13:00;7.80;99.90
4354;DHT22;11018;51.258;6.806;2022-11-11T06:15:35;7.70;99.90
4354;DHT22;11018;51.258;6.806;2022-11-11T06:18:03;7.80;99.90
4354;DHT22;11018;51.258;6.806;2022-11-11T06:20:29;7.80;99.90
4354;DHT22;11018;51.258;6.806;2022-11-11T06:22:55;7.80;99.90
4354;DHT22;11018;51.258;6.806;2022-11-11T06:25:25;7.80;99.90
4354;DHT22;11018;51.258;6.806;2022-11-11T06:28:10;7.80;99.90
4354;DHT22;11018;51.258;6.806;2022-11-11T06:30:36;7.80;99.90
4354;DHT22;11018;51.258;6.806;2022-11-11T06:33:02;7.80;99.90
4354;DHT22;11018;51.258;6.806;2022-11-11T06:35:28;7.80;99.90
4354;DHT22;11018;51.258;6.806;2022-11-11T06:37:54;7.80;99.90
4354;DHT22;11018;51.258;6.806;2022-11-11T06:40:19;7.80;99.90
4354;DHT22;11018;51.258;6.806;2022-11-11T06:42:45;7.90;99.90
4354;DHT22;11018;51.258;6.806;2022-11-11T06:45:10;7.90;99.90
4354;DHT22;11018;51.258;6.806;2022-11-11T06:47:36;7.80;99.90
4354;DHT22;11018;51.258;6.806;2022-11-11T06:50:01;7.90;99.90
4354;DHT22;11018;51.258;6.806;2022-11-11T06:52:27;7.90;99.90
4354;DHT22;11018;51.258;6.806;2022-11-11T06:54:53;7.80;99.90
4354;DHT22;11018;51.258;6.806;2022-11-11T06:57:21;7.90;99.90
4354;DHT22;11018;51.258;6.806;2022-11-11T06:59:47;7.90;99.90
4354;DHT22;11018;51.258;6.806;2022-11-11T07:02:13;7.90;99.90
4354;DHT22;11018;51.258;6.806;2022-11-11T07:04:38;7.90;99.90
4354;DHT22;11018;51.258;6.806;2022-11-11T07:07:04;7.90;99.90
4354;DHT22;11018;51.258;6.806;2022-11-11T07:09:30;8.00;99.90
4354;DHT22;11018;51.258;6.806;2022-11-11T07:11:55;8.00;99.90
4354;DHT22;11018;51.258;6.806;2022-11-11T07:14:21;8.00;99.90
4354;DHT22;11018;51.258;6.806;2022-11-11T07:16:46;8.00;99.90
4354;DHT22;11018;51.258;6.806;2022-11-11T07:19:12;8.00;99.90
4354;DHT22;11018;51.258;6.806;2022-11-11T07:21:38;8.10;99.90
4354;DHT22;11018;51.258;6.806;2022-11-11T07:24:03;8.10;99.90
4354;DHT22;11018;51.258;6.806;2022-11-11T07:26:29;8.20;99.90
4354;DHT22;11018;51.258;6.806;2022-11-11T07:28:54;8.30;99.90
4354;DHT22;11018;51.258;6.806;2022-11-11T07:31:20;8.40;99.90
4354;DHT22;11018;51.258;6.806;2022-11-11T07:33:46;8.50;99.90
4354;DHT22;11018;51.258;6.806;2022-11-11T07:36:12;8.50;99.90
4354;DHT22;11018;51.258;6.806;2022-11-11T07:38:37;8.50;99.90
4354;DHT22;11018;51.258;6.806;2022-11-11T07:41:03;8.70;99.90
4354;DHT22;11018;51.258;6.806;2022-11-11T07:43:29;8.70;99.90
4354;DHT22;11018;51.258;6.806;2022-11-11T07:45:54;8.70;99.90
4354;DHT22;11018;51.258;6.806;2022-11-11T07:48:20;8.70;99.90
4354;DHT22;11018;51.258;6.806;2022-11-11T07:50:46;8.80;99.90
4354;DHT22;11018;51.258;6.806;2022-11-11T07:53:11;8.90;99.90
4354;DHT22;11018;51.258;6.806;2022-11-11T07:55:37;9.00;99.90
4354;DHT22;11018;51.258;6.806;2022-11-11T07:58:03;9.00;99.90
4354;DHT22;11018;51.258;6.806;2022-11-11T08:00:28;9.00;99.30
4354;DHT22;11018;51.258;6.806;2022-11-11T08:02:54;9.10;98.00
4354;DHT22;11018;51.258;6.806;2022-11-11T08:05:19;9.20;97.90
4354;DHT22;11018;51.258;6.806;2022-11-11T08:07:45;9.30;94.40
4354;DHT22;11018;51.258;6.806;2022-11-11T08:10:11;9.40;93.10
4354;DHT22;11018;51.258;6.806;2022-11-11T08:12:37;9.50;91.30
4354;DHT22;11018;51.258;6.806;2022-11-11T08:15:21;9.50;90.60
4354;DHT22;11018;51.258;6.806;2022-11-11T08:17:47;9.50;87.70
4354;DHT22;11018;51.258;6.806;2022-11-11T08:20:12;9.70;86.90
4354;DHT22;11018;51.258;6.806;2022-11-11T08:22:39;9.80;83.60
4354;DHT22;11018;51.258;6.806;2022-11-11T08:25:10;9.90;80.80
4354;DHT22;11018;51.258;6.806;2022-11-11T08:27:38;9.90;80.60
4354;DHT22;11018;51.258;6.806;2022-11-11T08:30:05;10.10;78.70
4354;DHT22;11018;51.258;6.806;2022-11-11T08:32:31;10.20;76.90
4354;DHT22;11018;51.258;6.806;2022-11-11T08:34:57;10.20;75.00
4354;DHT22;11018;51.258;6.806;2022-11-11T08:37:22;10.30;74.30
4354;DHT22;11018;51.258;6.806;2022-11-11T08:39:48;10.30;73.40
4354;DHT22;11018;51.258;6.806;2022-11-11T08:42:14;10.30;72.10
4354;DHT22;11018;51.258;6.806;2022-11-11T08:44:40;10.40;72.80
4354;DHT22;11018;51.258;6.806;2022-11-11T08:47:05;10.40;72.60
4354;DHT22;11018;51.258;6.806;2022-11-11T08:49:31;10.50;72.50
4354;DHT22;11018;51.258;6.806;2022-11-11T08:51:56;10.50;70.60
4354;DHT22;11018;51.258;6.806;2022-11-11T08:54:22;10.60;68.50
4354;DHT22;11018;51.258;6.806;2022-11-11T08:56:47;10.70;67.80
4354;DHT22;11018;51.258;6.806;2022-11-11T08:59:13;10.80;66.60
4354;DHT22;11018;51.258;6.806;2022-11-11T09:01:38;11.00;65.60
4354;DHT22;11018;51.258;6.806;2022-11-11T09:04:04;11.20;63.30
4354;DHT22;11018;51.258;6.806;2022-11-11T09:06:29;11.40;61.80
4354;DHT22;11018;51.258;6.806;2022-11-11T09:08:55;11.40;61.20
4354;DHT22;11018;51.258;6.806;2022-11-11T09:11:20;11.50;59.60
4354;DHT22;11018;51.258;6.806;2022-11-11T09:13:46;11.50;58.60
4354;DHT22;11018;51.258;6.806;2022-11-11T09:16:12;11.50;58.30
4354;DHT22;11018;51.258;6.806;2022-11-11T09:18:38;11.50;59.10
4354;DHT22;11018;51.258;6.806;2022-11-11T09:21:04;11.50;59.50
4354;DHT22;11018;51.258;6.806;2022-11-11T09:23:30;11.50;59.90
4354;DHT22;11018;51.258;6.806;2022-11-11T09:25:56;11.50;59.70
4354;DHT22;11018;51.258;6.806;2022-11-11T09:28:22;11.50;59.40
4354;DHT22;11018;51.258;6.806;2022-11-11T09:30:48;11.60;58.80
4354;DHT22;11018;51.258;6.806;2022-11-11T09:33:15;11.70;57.50
4354;DHT22;11018;51.258;6.806;2022-11-11T09:35:42;11.70;56.80
4354;DHT22;11018;51.258;6.806;2022-11-11T09:38:08;11.70;57.30
4354;DHT22;11018;51.258;6.806;2022-11-11T09:46:24;11.70;56.00
4354;DHT22;11018;51.258;6.806;2022-11-11T09:49:23;11.80;55.70
4354;DHT22;11018;51.258;6.806;2022-11-11T09:54:36;11.90;54.80
4354;DHT22;11018;51.258;6.806;2022-11-11T09:57:13;11.90;54.90
4354;DHT22;11018;51.258;6.806;2022-11-11T09:59:44;12.00;54.70
4354;DHT22;11018;51.258;6.806;2022-11-11T10:02:40;12.10;53.60
4354;DHT22;11018;51.258;6.806;2022-11-11T10:05:08;12.20;52.10
4354;DHT22;11018;51.258;6.806;2022-11-11T10:08:00;12.20;50.50
4354;DHT22;11018;51.258;6.806;2022-11-11T10:10:46;12.30;50.40
4354;DHT22;11018;51.258;6.806;2022-11-11T10:13:18;12.40;51.60
4354;DHT22;11018;51.258;6.806;2022-11-11T10:21:13;12.70;47.10
4354;DHT22;11018;51.258;6.806;2022-11-11T10:23:39;12.60;46.80
4354;DHT22;11018;51.258;6.806;2022-11-11T10:26:18;12.60;48.40
4354;DHT22;11018;51.258;6.806;2022-11-11T10:28:48;12.60;47.40
4354;DHT22;11018;51.258;6.806;2022-11-11T10:31:18;12.60;48.00
4354;DHT22;11018;51.258;6.806;2022-11-11T10:34:02;12.60;48.30
4354;DHT22;11018;51.258;6.806;2022-11-11T10:36:30;12.60;47.40
4354;DHT22;11018;51.258;6.806;2022-11-11T10:39:03;12.70;47.60
4354;DHT22;11018;51.258;6.806;2022-11-11T10:41:31;12.70;47.00
4354;DHT22;11018;51.258;6.806;2022-11-11T10:43:58;12.70;46.60
4354;DHT22;11018;51.258;6.806;2022-11-11T10:46:27;12.80;47.70
4354;DHT22;11018;51.258;6.806;2022-11-11T10:49:10;12.90;46.00
4354;DHT22;11018;51.258;6.806;2022-11-11T10:51:46;13.00;45.50
4354;DHT22;11018;51.258;6.806;2022-11-11T10:54:20;13.10;45.90
4354;DHT22;11018;51.258;6.806;2022-11-11T10:56:58;13.20;45.30
4354;DHT22;11018;51.258;6.806;2022-11-11T11:02:08;13.40;44.90
4354;DHT22;11018;51.258;6.806;2022-11-11T11:04:47;13.40;44.30
4354;DHT22;11018;51.258;6.806;2022-11-11T11:07:20;13.40;42.20
4354;DHT22;11018;51.258;6.806;2022-11-11T11:09:54;13.40;42.20
4354;DHT22;11018;51.258;6.806;2022-11-11T11:12:35;13.50;42.30
4354;DHT22;11018;51.258;6.806;2022-11-11T11:15:10;13.50;41.50
4354;DHT22;11018;51.258;6.806;2022-11-11T11:17:50;13.50;41.40
4354;DHT22;11018;51.258;6.806;2022-11-11T11:20:19;13.60;40.70
4354;DHT22;11018;51.258;6.806;2022-11-11T11:22:53;13.60;40.80
4354;DHT22;11018;51.258;6.806;2022-11-11T11:25:21;13.60;40.10
4354;DHT22;11018;51.258;6.806;2022-11-11T11:27:49;13.50;40.20
4354;DHT22;11018;51.258;6.806;2022-11-11T11:30:16;13.50;39.90
4354;DHT22;11018;51.258;6.806;2022-11-11T11:32:58;13.50;39.80
4354;DHT22;11018;51.258;6.806;2022-11-11T11:35:36;13.50;39.70
4354;DHT22;11018;51.258;6.806;2022-11-11T11:38:05;13.60;39.10
4354;DHT22;11018;51.258;6.806;2022-11-11T11:40:48;13.80;38.60
4354;DHT22;11018;51.258;6.806;2022-11-11T11:43:25;13.80;39.30
4354;DHT22;11018;51.258;6.806;2022-11-11T11:45:55;13.80;40.30
4354;DHT22;11018;51.258;6.806;2022-11-11T11:48:50;13.80;39.10
4354;DHT22;11018;51.258;6.806;2022-11-11T11:57:01;13.90;39.00
4354;DHT22;11018;51.258;6.806;2022-11-11T11:59:48;13.90;38.90
4354;DHT22;11018;51.258;6.806;2022-11-11T12:07:58;14.00;37.80
4354;DHT22;11018;51.258;6.806;2022-11-11T12:10:51;14.10;37.60
4354;DHT22;11018;51.258;6.806;2022-11-11T12:21:28;14.10;37.10
4354;DHT22;11018;51.258;6.806;2022-11-11T12:37:45;14.20;36.30
4354;DHT22;11018;51.258;6.806;2022-11-11T12:45:46;14.10;36.30
4354;DHT22;11018;51.258;6.806;2022-11-11T13:02:31;14.30;37.10
4354;DHT22;11018;51.258;6.806;2022-11-11T13:05:11;14.30;37.40
4354;DHT22;11018;51.258;6.806;2022-11-11T13:10:47;14.40;36.80
4354;DHT22;11018;51.258;6.806;2022-11-11T13:13:39;14.50;37.00
4354;DHT22;11018;51.258;6.806;2022-11-11T13:16:08;14.50;36.50
4354;DHT22;11018;51.258;6.806;2022-11-11T13:18:56;14.50;37.00
4354;DHT22;11018;51.258;6.806;2022-11-11T13:21:51;14.50;37.00
4354;DHT22;11018;51.258;6.806;2022-11-11T13:24:20;14.60;36.30
4354;DHT22;11018;51.258;6.806;2022-11-11T13:26:50;14.60;35.90
4354;DHT22;11018;51.258;6.806;2022-11-11T13:29:43;14.70;35.40
4354;DHT22;11018;51.258;6.806;2022-11-11T13:32:13;14.70;35.60
4354;DHT22;11018;51.258;6.806;2022-11-11T13:34:40;14.70;35.30
4354;DHT22;11018;51.258;6.806;2022-11-11T13:37:08;14.80;34.60
4354;DHT22;11018;51.258;6.806;2022-11-11T13:39:47;14.80;34.90
4354;DHT22;11018;51.258;6.806;2022-11-11T13:42:21;14.80;35.20
4354;DHT22;11018;51.258;6.806;2022-11-11T13:44:54;14.90;35.40
4354;DHT22;11018;51.258;6.806;2022-11-11T13:47:26;14.90;35.40
4354;DHT22;11018;51.258;6.806;2022-11-11T13:50:08;14.90;34.20
4354;DHT22;11018;51.258;6.806;2022-11-11T13:52:44;15.00;34.30
4354;DHT22;11018;51.258;6.806;2022-11-11T13:57:51;15.40;32.20
4354;DHT22;11018;51.258;6.806;2022-11-11T14:02:43;15.80;31.20
4354;DHT22;11018;51.258;6.806;2022-11-11T14:15:32;16.50;28.20
4354;DHT22;11018;51.258;6.806;2022-11-11T14:17:58;16.50;27.80
4354;DHT22;11018;51.258;6.806;2022-11-11T14:20:35;16.70;27.20
4354;DHT22;11018;51.258;6.806;2022-11-11T14:25:45;16.80;26.50
4354;DHT22;11018;51.258;6.806;2022-11-11T14:28:27;16.70;26.40
4354;DHT22;11018;51.258;6.806;2022-11-11T14:30:55;16.50;27.20
4354;DHT22;11018;51.258;6.806;2022-11-11T14:36:21;15.70;29.10
4354;DHT22;11018;51.258;6.806;2022-11-11T14:38:55;15.40;29.70
4354;DHT22;11018;51.258;6.806;2022-11-11T14:41:52;15.30;31.00
4354;DHT22;11018;51.258;6.806;2022-11-11T14:57:46;14.70;32.90
4354;DHT22;11018;51.258;6.806;2022-11-11T15:00:25;14.60;33.10
4354;DHT22;11018;51.258;6.806;2022-11-11T15:03:25;14.50;33.80
4354;DHT22;11018;51.258;6.806;2022-11-11T15:16:33;13.90;36.20
4354;DHT22;11018;51.258;6.806;2022-11-11T15:26:59;13.70;37.80
4354;DHT22;11018;51.258;6.806;2022-11-11T15:29:38;13.50;38.80
4354;DHT22;11018;51.258;6.806;2022-11-11T15:35:22;13.10;41.00
4354;DHT22;11018;51.258;6.806;2022-11-11T15:37:52;12.90;42.50
4354;DHT22;11018;51.258;6.806;2022-11-11T15:40:25;12.80;43.50
4354;DHT22;11018;51.258;6.806;2022-11-11T15:42:51;12.70;45.10
4354;DHT22;11018;51.258;6.806;2022-11-11T15:47:43;12.40;47.00
4354;DHT22;11018;51.258;6.806;2022-11-11T15:50:17;12.30;48.00
4354;DHT22;11018;51.258;6.806;2022-11-11T15:52:43;12.20;49.60
4354;DHT22;11018;51.258;6.806;2022-11-11T15:55:25;12.20;50.00
4354;DHT22;11018;51.258;6.806;2022-11-11T15:57:50;12.10;50.20
4354;DHT22;11018;51.258;6.806;2022-11-11T16:00:30;12.00;51.60
4354;DHT22;11018;51.258;6.806;2022-11-11T16:02:56;12.00;51.80
4354;DHT22;11018;51.258;6.806;2022-11-11T16:05:27;11.90;53.30
4354;DHT22;11018;51.258;6.806;2022-11-11T16:07:55;11.70;54.50
4354;DHT22;11018;51.258;6.806;2022-11-11T16:10:28;11.70;55.40
4354;DHT22;11018;51.258;6.806;2022-11-11T16:13:20;11.70;54.50
4354;DHT22;11018;51.258;6.806;2022-11-11T16:16:14;11.50;55.90
4354;DHT22;11018;51.258;6.806;2022-11-11T16:18:47;11.30;57.40
4354;DHT22;11018;51.258;6.806;2022-11-11T16:21:17;11.30;58.00
4354;DHT22;11018;51.258;6.806;2022-11-11T16:23:44;11.20;58.30
4354;DHT22;11018;51.258;6.806;2022-11-11T16:26:11;11.10;59.50
4354;DHT22;11018;51.258;6.806;2022-11-11T16:28:48;11.10;61.20
4354;DHT22;11018;51.258;6.806;2022-11-11T16:37:05;10.90;64.20
4354;DHT22;11018;51.258;6.806;2022-11-11T16:39:33;10.90;63.70
4354;DHT22;11018;51.258;6.806;2022-11-11T16:42:14;10.80;65.40
4354;DHT22;11018;51.258;6.806;2022-11-11T16:50:23;10.70;66.60
4354;DHT22;11018;51.258;6.806;2022-11-11T16:55:27;10.70;67.30
4354;DHT22;11018;51.258;6.806;2022-11-11T16:57:57;10.60;68.20
4354;DHT22;11018;51.258;6.806;2022-11-11T17:00:24;10.60;69.50
4354;DHT22;11018;51.258;6.806;2022-11-11T17:03:22;10.50;70.10
4354;DHT22;11018;51.258;6.806;2022-11-11T17:06:07;10.50;70.30
4354;DHT22;11018;51.258;6.806;2022-11-11T17:08:38;10.40;70.30
4354;DHT22;11018;51.258;6.806;2022-11-11T17:11:09;10.40;71.60
4354;DHT22;11018;51.258;6.806;2022-11-11T17:13:35;10.40;70.90
4354;DHT22;11018;51.258;6.806;2022-11-11T17:16:03;10.50;70.50
4354;DHT22;11018;51.258;6.806;2022-11-11T17:18:33;10.30;70.80
4354;DHT22;11018;51.258;6.806;2022-11-11T17:21:00;10.30;71.90
4354;DHT22;11018;51.258;6.806;2022-11-11T17:23:26;10.20;73.60
4354;DHT22;11018;51.258;6.806;2022-11-11T17:25:56;10.20;73.50
4354;DHT22;11018;51.258;6.806;2022-11-11T17:28:22;10.40;72.90
4354;DHT22;11018;51.258;6.806;2022-11-11T17:30:48;10.30;72.80
4354;DHT22;11018;51.258;6.806;2022-11-11T17:33:13;10.20;74.00
4354;DHT22;11018;51.258;6.806;2022-11-11T17:35:39;10.10;75.20
4354;DHT22;11018;51.258;6.806;2022-11-11T17:38:13;10.20;74.90
4354;DHT22;11018;51.258;6.806;2022-11-11T17:40:43;10.10;75.50
4354;DHT22;11018;51.258;6.806;2022-11-11T17:43:09;10.10;77.20
4354;DHT22;11018;51.258;6.806;2022-11-11T17:45:35;10.10;75.90
4354;DHT22;11018;51.258;6.806;2022-11-11T17:48:00;10.10;76.00
4354;DHT22;11018;51.258;6.806;2022-11-11T17:50:26;10.10;75.20
4354;DHT22;11018;51.258;6.806;2022-11-11T17:52:54;10.10;75.10
4354;DHT22;11018;51.258;6.806;2022-11-11T17:55:20;10.20;74.80
4354;DHT22;11018;51.258;6.806;2022-11-11T17:57:46;10.10;74.50
4354;DHT22;11018;51.258;6.806;2022-11-11T18:00:12;10.10;74.10
4354;DHT22;11018;51.258;6.806;2022-11-11T18:02:38;10.10;74.30
4354;DHT22;11018;51.258;6.806;2022-11-11T18:05:03;10.00;75.30
4354;DHT22;11018;51.258;6.806;2022-11-11T18:07:29;10.00;75.30
4354;DHT22;11018;51.258;6.806;2022-11-11T18:09:54;10.00;75.50
4354;DHT22;11018;51.258;6.806;2022-11-11T18:12:20;10.10;74.10
4354;DHT22;11018;51.258;6.806;2022-11-11T18:14:45;10.10;71.70
4354;DHT22;11018;51.258;6.806;2022-11-11T18:17:11;10.00;72.70
4354;DHT22;11018;51.258;6.806;2022-11-11T18:19:36;10.00;72.90
4354;DHT22;11018;51.258;6.806;2022-11-11T18:22:02;10.00;73.20
4354;DHT22;11018;51.258;6.806;2022-11-11T18:24:27;10.00;72.40
4354;DHT22;11018;51.258;6.806;2022-11-11T18:26:53;10.10;70.30
4354;DHT22;11018;51.258;6.806;2022-11-11T18:29:19;10.20;70.30
4354;DHT22;11018;51.258;6.806;2022-11-11T18:31:44;10.10;68.90
4354;DHT22;11018;51.258;6.806;2022-11-11T18:34:10;10.10;69.70
4354;DHT22;11018;51.258;6.806;2022-11-11T18:36:35;10.10;68.50
4354;DHT22;11018;51.258;6.806;2022-11-11T18:39:01;10.00;69.70
4354;DHT22;11018;51.258;6.806;2022-11-11T18:41:26;10.00;70.00
4354;DHT22;11018;51.258;6.806;2022-11-11T18:43:52;9.90;72.30
4354;DHT22;11018;51.258;6.806;2022-11-11T18:46:23;9.90;71.40